Aeroporto :
LOGIN :

Iscrizione | Disclaimer

   EN    FR    IT 

 










Sommario :    VFR   VFR Marginale   IFR   IFR Intensivo   IFR Molto Intensivo
Visibilità : 
Base nubi : 
>= 8 km
>= 3000ft
5 / 8 km
1000 / 3000 ft
1500m / 5 km
500 / 1000 ft
800 / 1500m
200 / 500 ft
< 800m
< 200 ft
Simboli :   Temporali  Nebbia  Neve Forte  Precipitazioni Forti  Vento > 20 kt
SIGMETs :   Varie  Temporali  Ghiacco  Turbolenza  Onda orograficha  Ceneri Vulcaniche






- Altitudine del aeroporto : 129 ft
- Codice IATA : ZCN


ETHC - Celle

ULTIMO METAR :
  • 090850Z 09004KT 4000 BR SCT008 BKN025 BKN038 01/M00 Q1004 GRN GRN TEMPO YLO

METARs OBSOLETI :
  • 090820Z 10003KT 4000 BR BKN008 BKN023 01/M00 Q1004 GRN GRN TEMPO YLO
  • 090720Z 11002KT 4000 BR BKN007 BKN019 00/M00 Q1004 GRN GRN TEMPO YLO
  • 090620Z 11003KT 5000 BR OVC005 01/M00 Q1004 YLO YLO

TAF TAF ETHC
Valido dal 09 a 09 ore il 09 a 18 ore UTC


090829Z 0909/0918 10005KT 5000 BR SCT010 BKN020
TEMPO 0909/0912 08003KT 3000 BR BKN007
TEMPO 0912/0918 12006KT 8000 NSW SCT012 BKN030



MetMap, La meteo Aeronautica in un colpo d'occhio ! - Copyright ORBIFLY Dicembre 2007 - Disclaimer

ORBIFLY MET'MAP TEAM :

Programmazione e sviluppo : Alexandra Zaïnal
Concezione : Baudouin d'Aumeries
Aiuto per la programmazione : Marc-Olivier Méhu
Supporto tecnico e logistico : Manuel Goepfert
Aiuto per la traduzione : Arnaldo La Scala

Contatto : metmap@orbifly.com




FONTI E CREDITI :

   NOAA